Time;durP1;ratioP1;P1;durP2;ratioP2;P2;SDS_P1;SDS_P2;PMS_P1;PMS_P2;Temp;Humidity;BMP_temperature;BMP_pressure;BME280_temperature;BME280_humidity;BME280_pressure;Samples;Min_cycle;Max_cycle;Signal;HPM_P1;HPM_P2
2021/06/13 00:02:05;;;;;;;8.03;7.43;;;17.10;99.90;;;;;;5029059;28;21173;-92
2021/06/13 00:04:31;;;;;;;11.23;8.00;;;17.00;99.90;;;;;;5025432;28;20689;-91
2021/06/13 00:06:58;;;;;;;10.73;7.70;;;17.00;99.90;;;;;;5027408;28;20622;-91
2021/06/13 00:09:24;;;;;;;8.10;7.50;;;17.00;99.90;;;;;;5025564;28;21211;-91
2021/06/13 00:11:51;;;;;;;8.23;7.50;;;17.00;99.90;;;;;;5026111;28;20611;-91
2021/06/13 00:14:22;;;;;;;8.40;7.70;;;16.90;99.90;;;;;;5028460;28;20649;-92
2021/06/13 00:16:49;;;;;;;7.77;7.13;;;16.90;99.90;;;;;;5027630;28;20991;-91
2021/06/13 00:19:16;;;;;;;8.00;7.40;;;17.00;99.90;;;;;;5025476;28;20646;-92
2021/06/13 00:21:43;;;;;;;7.90;7.20;;;17.00;99.90;;;;;;5026718;28;20631;-91
2021/06/13 00:24:09;;;;;;;8.23;7.30;;;17.10;99.90;;;;;;5028343;28;21141;-92
2021/06/13 00:26:36;;;;;;;8.53;7.90;;;17.20;99.90;;;;;;5028955;28;20638;-92
2021/06/13 00:29:03;;;;;;;7.53;6.83;;;17.30;99.90;;;;;;5024751;28;20645;-92
2021/06/13 00:31:31;;;;;;;9.30;8.30;;;17.30;99.90;;;;;;5028478;28;20664;-90
2021/06/13 00:33:58;;;;;;;8.43;7.67;;;17.30;99.90;;;;;;5027988;28;21063;-90
2021/06/13 00:36:26;;;;;;;7.90;7.13;;;17.30;99.90;;;;;;5027844;28;20603;-91
2021/06/13 00:38:53;;;;;;;8.97;8.10;;;17.40;99.90;;;;;;5020007;28;20639;-90
2021/06/13 00:41:21;;;;;;;10.90;8.07;;;17.30;99.90;;;;;;5027706;28;20732;-90
2021/06/13 00:43:49;;;;;;;7.20;6.60;;;17.40;99.90;;;;;;5033185;28;21189;-90
2021/06/13 00:46:15;;;;;;;8.50;7.70;;;17.40;99.90;;;;;;5028696;28;21154;-92
2021/06/13 00:48:43;;;;;;;8.63;7.70;;;17.40;99.90;;;;;;5029303;28;20642;-93
2021/06/13 00:51:11;;;;;;;8.80;8.00;;;17.50;99.90;;;;;;5025688;28;20671;-92
2021/06/13 00:53:38;;;;;;;8.73;8.03;;;17.50;99.90;;;;;;5024516;28;20615;-93
2021/06/13 00:56:05;;;;;;;9.83;8.67;;;17.50;99.90;;;;;;5029221;28;20773;-94
2021/06/13 00:58:32;;;;;;;9.23;8.50;;;17.50;99.90;;;;;;5025620;28;20634;-94
2021/06/13 01:01:06;;;;;;;9.27;8.47;;;17.50;99.90;;;;;;5026006;28;20762;-94
2021/06/13 01:03:33;;;;;;;9.20;8.40;;;17.60;99.90;;;;;;5029764;28;20640;-93
2021/06/13 01:06:00;;;;;;;9.90;9.10;;;17.60;99.90;;;;;;5029392;28;20638;-93
2021/06/13 01:08:36;;;;;;;8.50;7.80;;;17.60;99.90;;;;;;5029663;28;20633;-93
2021/06/13 01:11:17;;;;;;;9.30;8.50;;;17.50;99.90;;;;;;5034358;28;20654;-92
2021/06/13 01:13:50;;;;;;;10.87;9.77;;;17.70;99.90;;;;;;5032195;28;20630;-92
2021/06/13 01:16:26;;;;;;;9.13;8.27;;;17.70;99.90;;;;;;5015553;28;20623;-93
2021/06/13 01:18:57;;;;;;;8.90;8.10;;;17.60;99.90;;;;;;5026486;28;20639;-93
2021/06/13 01:21:31;;;;;;;8.97;8.23;;;17.60;99.90;;;;;;5031087;28;20679;-94
2021/06/13 01:24:17;;;;;;;9.07;8.00;;;17.60;99.90;;;;;;5026815;28;20627;-92
2021/06/13 01:27:10;;;;;;;9.17;8.33;;;17.60;99.90;;;;;;5025014;28;20700;-89
2021/06/13 01:29:43;;;;;;;7.93;7.23;;;17.60;99.90;;;;;;5024010;28;21340;-90
2021/06/13 01:32:14;;;;;;;8.77;7.13;;;17.50;99.90;;;;;;5024092;28;20638;-91
2021/06/13 01:34:46;;;;;;;8.33;7.53;;;17.50;99.90;;;;;;5026768;28;20730;-89
2021/06/13 01:37:18;;;;;;;6.97;6.47;;;17.50;99.90;;;;;;5023181;28;20607;-90
2021/06/13 01:39:47;;;;;;;7.77;7.17;;;17.50;99.90;;;;;;5024694;28;20679;-90
2021/06/13 01:42:15;;;;;;;9.50;8.30;;;17.40;99.90;;;;;;5027470;28;20623;-90
2021/06/13 01:44:45;;;;;;;9.60;7.57;;;17.40;99.90;;;;;;5024946;28;20626;-91
2021/06/13 01:47:13;;;;;;;8.93;8.13;;;17.30;99.90;;;;;;5023015;28;20668;-90
2021/06/13 01:49:42;;;;;;;7.80;7.07;;;17.40;99.90;;;;;;5024072;28;20642;-90
2021/06/13 01:52:10;;;;;;;8.30;7.60;;;17.40;99.90;;;;;;5025727;28;20666;-90
2021/06/13 01:54:37;;;;;;;7.93;7.20;;;17.30;99.90;;;;;;5024520;28;20634;-90
2021/06/13 01:57:05;;;;;;;8.43;7.63;;;17.30;99.90;;;;;;5023679;28;20619;-90
2021/06/13 01:59:32;;;;;;;7.50;6.90;;;17.30;99.90;;;;;;5024209;28;20658;-91
2021/06/13 02:02:00;;;;;;;8.90;7.50;;;17.20;99.90;;;;;;5026566;28;20622;-90
2021/06/13 02:04:29;;;;;;;7.93;7.23;;;17.20;99.90;;;;;;5009100;28;21040;-90
2021/06/13 02:06:58;;;;;;;7.97;6.43;;;17.20;99.90;;;;;;5024514;28;21191;-91
2021/06/13 02:09:27;;;;;;;9.43;6.87;;;17.10;99.90;;;;;;5021659;28;20705;-90
2021/06/13 02:11:56;;;;;;;6.13;5.63;;;17.10;99.90;;;;;;5025182;28;20646;-90
2021/06/13 02:14:25;;;;;;;7.53;6.83;;;17.00;99.90;;;;;;5025549;28;20630;-91
2021/06/13 02:16:54;;;;;;;8.00;7.30;;;17.00;99.90;;;;;;5033154;28;20639;-90
2021/06/13 02:19:23;;;;;;;9.30;7.40;;;17.00;99.90;;;;;;5031242;28;20643;-90
2021/06/13 02:21:59;;;;;;;6.73;5.83;;;16.90;99.90;;;;;;5031808;28;20723;-92
2021/06/13 02:24:29;;;;;;;7.13;5.87;;;16.90;99.90;;;;;;5033753;28;20622;-92
2021/06/13 02:26:57;;;;;;;6.90;6.30;;;17.00;99.90;;;;;;5034358;28;20637;-93
2021/06/13 02:29:25;;;;;;;6.73;5.40;;;17.00;99.90;;;;;;5042255;28;20628;-93
2021/06/13 02:31:54;;;;;;;9.63;5.33;;;17.00;99.90;;;;;;5046045;28;20615;-91
2021/06/13 02:34:24;;;;;;;5.63;5.03;;;17.10;99.90;;;;;;5047998;28;20697;-91
2021/06/13 02:36:53;;;;;;;7.30;5.83;;;17.10;99.90;;;;;;5041133;28;20611;-91
2021/06/13 02:39:20;;;;;;;5.43;5.03;;;17.10;99.90;;;;;;5042913;28;20627;-91
2021/06/13 02:41:49;;;;;;;8.10;5.43;;;17.10;99.90;;;;;;5043967;28;20619;-91
2021/06/13 02:44:15;;;;;;;5.00;4.47;;;17.10;99.90;;;;;;5041934;28;20631;-90
2021/06/13 02:46:42;;;;;;;5.33;4.93;;;17.20;99.90;;;;;;5031517;28;21034;-91
2021/06/13 02:49:10;;;;;;;10.60;4.90;;;17.10;99.90;;;;;;5015571;28;20669;-92
2021/06/13 02:51:42;;;;;;;7.60;5.13;;;17.10;99.90;;;;;;5030061;28;20612;-93
2021/06/13 02:54:11;;;;;;;7.43;5.20;;;17.10;99.90;;;;;;5030462;28;20684;-92
2021/06/13 02:56:46;;;;;;;6.00;5.40;;;17.10;99.90;;;;;;4995940;28;21379;-92
2021/06/13 02:59:20;;;;;;;8.67;6.07;;;17.10;99.90;;;;;;5028733;28;20653;-91
2021/06/13 03:01:49;;;;;;;7.60;5.77;;;17.20;99.90;;;;;;5036814;28;20665;-92
2021/06/13 03:04:18;;;;;;;8.70;5.17;;;17.20;99.90;;;;;;5032538;28;20693;-92
2021/06/13 03:06:49;;;;;;;6.13;5.00;;;17.30;99.90;;;;;;5030936;28;20629;-91
2021/06/13 03:09:17;;;;;;;7.00;6.30;;;17.20;99.90;;;;;;5026862;28;20635;-91
2021/06/13 03:11:45;;;;;;;8.63;6.13;;;17.20;99.90;;;;;;5030654;28;21055;-92
2021/06/13 03:14:13;;;;;;;5.93;5.30;;;17.10;99.90;;;;;;5031490;28;20631;-89
2021/06/13 03:16:40;;;;;;;7.07;4.67;;;17.20;99.90;;;;;;5029881;28;20622;-89
2021/06/13 03:19:09;;;;;;;9.20;5.47;;;17.10;99.90;;;;;;5028701;28;20692;-90
2021/06/13 03:21:36;;;;;;;9.40;6.43;;;17.10;99.90;;;;;;5033331;28;21274;-90
2021/06/13 03:24:07;;;;;;;6.13;5.63;;;17.10;99.90;;;;;;5029817;28;20994;-90
2021/06/13 03:26:35;;;;;;;9.30;6.00;;;17.10;99.90;;;;;;5027874;28;20641;-91
2021/06/13 03:29:02;;;;;;;5.93;5.43;;;17.00;99.90;;;;;;5029733;28;20645;-91
2021/06/13 03:31:32;;;;;;;7.70;6.10;;;17.00;99.90;;;;;;5029228;28;21598;-91
2021/06/13 03:33:59;;;;;;;6.40;5.90;;;17.00;99.90;;;;;;5031273;28;21184;-92
2021/06/13 03:36:26;;;;;;;6.47;5.90;;;17.00;99.90;;;;;;5028906;28;20668;-88
2021/06/13 03:38:55;;;;;;;6.60;5.27;;;17.00;99.90;;;;;;5029020;28;20635;-93
2021/06/13 03:41:25;;;;;;;10.20;6.70;;;17.00;99.90;;;;;;5025374;28;21441;-92
2021/06/13 03:43:52;;;;;;;7.00;5.73;;;17.00;99.90;;;;;;5027128;28;20669;-92
2021/06/13 03:46:20;;;;;;;6.70;5.43;;;17.00;99.90;;;;;;5024768;28;20635;-91
2021/06/13 03:48:50;;;;;;;7.27;6.67;;;17.00;99.90;;;;;;5028690;28;21178;-94
2021/06/13 03:51:18;;;;;;;7.33;5.53;;;17.00;99.90;;;;;;5025174;28;20662;-91
2021/06/13 03:53:48;;;;;;;6.57;5.80;;;16.90;99.90;;;;;;5025614;28;21130;-90
2021/06/13 03:56:18;;;;;;;6.80;5.30;;;17.00;99.90;;;;;;5024380;28;20631;-90
2021/06/13 03:58:48;;;;;;;6.07;5.47;;;17.00;99.90;;;;;;5030596;28;20619;-89
2021/06/13 04:01:17;;;;;;;7.40;5.57;;;17.00;99.90;;;;;;5028227;28;20674;-91
2021/06/13 04:03:48;;;;;;;5.77;5.17;;;17.00;99.90;;;;;;5028813;28;20627;-90
2021/06/13 04:06:15;;;;;;;7.13;6.20;;;17.10;99.90;;;;;;5027478;28;20635;-91
2021/06/13 04:08:45;;;;;;;6.37;5.77;;;17.00;99.90;;;;;;5023749;28;20698;-90
2021/06/13 04:11:13;;;;;;;7.30;6.20;;;17.10;99.90;;;;;;5025096;28;20647;-90
2021/06/13 04:13:40;;;;;;;9.00;6.40;;;17.10;99.90;;;;;;5025292;28;20630;-91
2021/06/13 04:16:11;;;;;;;6.67;6.03;;;17.00;99.90;;;;;;5025573;28;20623;-91
2021/06/13 04:18:39;;;;;;;6.80;6.20;;;17.00;99.90;;;;;;5023042;28;20599;-90
2021/06/13 04:21:09;;;;;;;8.70;7.10;;;16.90;99.90;;;;;;5023264;28;20747;-90
2021/06/13 04:23:36;;;;;;;9.40;6.07;;;16.80;99.90;;;;;;5027820;28;20630;-91
2021/06/13 04:26:03;;;;;;;6.83;6.23;;;16.80;99.90;;;;;;5026735;28;20643;-89
2021/06/13 04:28:31;;;;;;;8.57;6.70;;;16.80;99.90;;;;;;5026708;28;20638;-90
2021/06/13 04:31:12;;;;;;;9.03;6.77;;;16.80;99.90;;;;;;5026205;28;21074;-91
2021/06/13 04:33:40;;;;;;;8.07;7.20;;;16.80;99.90;;;;;;5026640;28;20637;-92
2021/06/13 04:36:08;;;;;;;6.43;5.90;;;16.70;99.90;;;;;;5026106;28;20630;-91
2021/06/13 04:38:35;;;;;;;8.17;6.57;;;16.70;99.90;;;;;;5023477;28;20650;-91
2021/06/13 04:41:02;;;;;;;6.50;5.90;;;16.60;99.90;;;;;;5028375;28;20677;-90
2021/06/13 04:43:29;;;;;;;8.00;6.07;;;16.60;99.90;;;;;;5025864;28;20634;-93
2021/06/13 04:45:56;;;;;;;6.40;5.83;;;16.70;99.90;;;;;;5024847;28;20633;-92
2021/06/13 04:48:27;;;;;;;7.03;6.43;;;16.70;99.90;;;;;;5028112;28;21250;-92
2021/06/13 04:50:55;;;;;;;7.00;6.30;;;16.60;99.90;;;;;;5022487;28;20662;-91
2021/06/13 04:54:09;;;;;;;7.07;6.40;;;16.70;99.90;;;;;;5025267;28;20717;-91
2021/06/13 04:56:42;;;;;;;7.20;5.87;;;16.60;99.90;;;;;;5021377;28;20623;-89
2021/06/13 04:59:10;;;;;;;9.97;6.03;;;16.60;99.90;;;;;;5023433;28;21188;-89
2021/06/13 05:01:40;;;;;;;8.60;5.53;;;16.50;99.90;;;;;;5023457;28;20655;-90
2021/06/13 05:04:08;;;;;;;6.90;6.30;;;16.50;99.90;;;;;;5022924;28;21221;-91
2021/06/13 05:06:35;;;;;;;9.87;6.93;;;16.60;99.90;;;;;;5024391;28;20637;-90
2021/06/13 05:09:03;;;;;;;6.03;5.50;;;16.60;99.90;;;;;;5024386;28;20643;-90
2021/06/13 05:11:30;;;;;;;8.33;5.80;;;16.60;99.90;;;;;;5027212;28;20651;-89
2021/06/13 05:13:57;;;;;;;6.53;5.90;;;16.60;99.90;;;;;;5029721;28;20646;-90
2021/06/13 05:16:24;;;;;;;7.87;6.23;;;16.60;99.90;;;;;;5026077;28;20986;-91
2021/06/13 05:18:52;;;;;;;8.23;6.53;;;16.70;99.90;;;;;;5029400;28;20633;-93
2021/06/13 05:21:38;;;;;;;6.60;6.00;;;16.70;99.90;;;;;;5037904;28;20670;-96
2021/06/13 05:24:09;;;;;;;7.57;5.97;;;16.70;99.90;;;;;;5042689;28;20737;-96
2021/06/13 05:26:53;;;;;;;6.27;5.67;;;16.80;99.90;;;;;;5030589;28;21113;-96
2021/06/13 05:29:20;;;;;;;8.23;6.20;;;16.80;99.90;;;;;;5035911;28;20642;-95
2021/06/13 05:31:48;;;;;;;8.60;5.87;;;16.80;99.90;;;;;;5035683;28;20623;-91
2021/06/13 05:34:16;;;;;;;6.33;5.40;;;16.90;99.90;;;;;;5022502;28;20638;-92
2021/06/13 05:36:45;;;;;;;6.27;5.67;;;16.90;99.90;;;;;;5020468;28;20702;-93
2021/06/13 05:39:12;;;;;;;6.77;6.07;;;17.00;99.90;;;;;;5025954;28;20658;-93
2021/06/13 05:41:39;;;;;;;8.77;5.63;;;17.10;99.90;;;;;;5024929;28;20670;-94
2021/06/13 05:44:06;;;;;;;5.97;4.77;;;17.20;99.90;;;;;;5027485;28;20630;-94
2021/06/13 05:46:33;;;;;;;6.20;5.27;;;17.20;99.90;;;;;;5021400;28;20724;-94
2021/06/13 05:49:01;;;;;;;6.27;5.17;;;17.40;99.90;;;;;;5023111;28;20645;-93
2021/06/13 05:51:29;;;;;;;6.17;5.67;;;17.50;99.90;;;;;;5023156;28;21253;-93
2021/06/13 05:53:58;;;;;;;7.20;5.70;;;17.50;99.90;;;;;;5023376;28;20619;-94
2021/06/13 05:56:24;;;;;;;4.60;4.20;;;17.70;99.90;;;;;;5020783;28;20622;-94
2021/06/13 05:58:51;;;;;;;4.33;3.70;;;17.70;99.90;;;;;;5021194;28;20635;-93
2021/06/13 06:01:18;;;;;;;7.60;4.40;;;17.70;99.90;;;;;;5023876;28;20673;-93
2021/06/13 06:03:48;;;;;;;6.67;4.27;;;17.70;99.90;;;;;;5025410;28;20634;-94
2021/06/13 06:06:16;;;;;;;8.63;4.30;;;17.80;99.90;;;;;;5023613;28;20642;-95
2021/06/13 06:08:43;;;;;;;3.83;3.60;;;17.70;99.90;;;;;;5025714;28;20643;-93
2021/06/13 06:11:12;;;;;;;5.70;3.80;;;17.70;99.90;;;;;;5019704;28;20664;-93
2021/06/13 06:13:43;;;;;;;4.10;3.70;;;17.90;99.90;;;;;;5025183;28;20646;-93
2021/06/13 06:16:11;;;;;;;6.87;4.43;;;17.90;99.90;;;;;;5026059;28;20639;-93
2021/06/13 06:18:38;;;;;;;7.37;5.10;;;18.00;99.90;;;;;;5021457;28;20682;-93
2021/06/13 06:21:13;;;;;;;5.37;4.80;;;17.80;99.90;;;;;;5025445;28;20677;-94
2021/06/13 06:23:41;;;;;;;10.27;4.37;;;18.00;99.90;;;;;;5023882;28;20665;-93
2021/06/13 06:26:13;;;;;;;6.23;4.00;;;18.10;99.90;;;;;;5024280;28;20627;-93
2021/06/13 06:28:42;;;;;;;5.97;4.40;;;18.20;99.90;;;;;;5021197;28;20634;-93
2021/06/13 06:31:10;;;;;;;5.13;4.63;;;18.20;99.90;;;;;;5017604;28;20629;-93
2021/06/13 06:33:38;;;;;;;5.30;4.80;;;18.30;99.90;;;;;;5008919;28;20635;-93
2021/06/13 06:36:06;;;;;;;6.23;4.57;;;18.20;99.90;;;;;;5024954;28;20619;-93
2021/06/13 06:38:36;;;;;;;7.97;3.73;;;18.10;99.90;;;;;;5011527;28;20662;-94
2021/06/13 06:41:03;;;;;;;5.67;4.80;;;18.30;99.90;;;;;;5030668;28;20670;-93
2021/06/13 06:43:31;;;;;;;6.23;4.20;;;18.50;99.90;;;;;;5029445;28;21250;-92
2021/06/13 06:45:58;;;;;;;4.60;4.20;;;18.30;99.90;;;;;;5024951;28;20645;-93
2021/06/13 06:48:25;;;;;;;5.77;4.30;;;18.40;99.90;;;;;;5036139;28;20627;-94
2021/06/13 06:50:52;;;;;;;4.90;4.10;;;18.40;99.90;;;;;;5028797;28;20632;-95
2021/06/13 06:53:19;;;;;;;7.50;3.90;;;18.60;99.90;;;;;;5030873;28;21366;-93
2021/06/13 06:55:45;;;;;;;7.60;3.40;;;18.50;99.90;;;;;;5032022;28;20642;-93
2021/06/13 06:58:13;;;;;;;5.70;4.53;;;18.60;99.90;;;;;;5007658;28;20787;-92
2021/06/13 07:00:43;;;;;;;8.00;4.43;;;18.60;99.90;;;;;;5006665;28;20687;-93
2021/06/13 07:03:11;;;;;;;5.83;3.80;;;18.60;99.90;;;;;;5030226;28;21563;-93
2021/06/13 07:05:40;;;;;;;5.50;4.20;;;18.60;99.90;;;;;;5035586;28;20622;-93
2021/06/13 07:08:07;;;;;;;4.60;3.63;;;18.70;99.90;;;;;;5030420;28;20631;-92
2021/06/13 07:10:44;;;;;;;4.83;4.20;;;18.70;99.90;;;;;;5031778;28;20632;-94
2021/06/13 07:13:12;;;;;;;5.73;4.97;;;18.70;99.90;;;;;;5028271;28;20655;-92
2021/06/13 07:15:41;;;;;;;5.20;4.50;;;18.80;99.90;;;;;;5034049;28;20631;-94
2021/06/13 07:18:07;;;;;;;5.20;4.70;;;18.90;99.90;;;;;;5034810;28;20625;-93
2021/06/13 07:20:35;;;;;;;6.83;5.10;;;19.00;99.90;;;;;;5031012;28;20625;-93
2021/06/13 07:23:02;;;;;;;7.73;4.70;;;19.10;99.90;;;;;;5030001;28;20678;-94
2021/06/13 07:25:30;;;;;;;5.27;4.77;;;19.10;99.90;;;;;;5029218;28;20649;-93
2021/06/13 07:27:57;;;;;;;6.90;4.73;;;19.00;99.90;;;;;;5028725;28;20844;-94
2021/06/13 07:30:24;;;;;;;8.43;5.00;;;19.00;99.90;;;;;;5028200;28;20635;-93
2021/06/13 07:32:53;;;;;;;8.57;5.03;;;19.30;99.90;;;;;;5030422;28;20653;-93
2021/06/13 07:35:21;;;;;;;5.93;4.83;;;19.20;99.90;;;;;;5029856;28;20651;-93
2021/06/13 07:37:48;;;;;;;6.63;4.90;;;19.20;99.90;;;;;;5025914;28;20630;-92
2021/06/13 07:40:16;;;;;;;5.93;4.50;;;19.20;99.90;;;;;;5027886;28;20750;-91
2021/06/13 07:42:44;;;;;;;7.83;4.57;;;19.30;99.90;;;;;;5011584;28;20670;-93
2021/06/13 07:45:12;;;;;;;7.77;5.53;;;19.30;99.90;;;;;;5024700;28;20901;-92
2021/06/13 07:47:40;;;;;;;4.90;4.40;;;19.30;99.90;;;;;;5026986;28;20645;-91
2021/06/13 07:50:14;;;;;;;6.27;4.47;;;19.40;99.90;;;;;;5026167;28;20633;-93
2021/06/13 07:52:42;;;;;;;4.73;4.33;;;19.30;99.90;;;;;;5010459;28;20991;-93
2021/06/13 07:55:11;;;;;;;7.27;4.77;;;19.40;99.90;;;;;;5010016;28;20653;-92
2021/06/13 07:57:39;;;;;;;9.27;4.77;;;19.20;99.90;;;;;;5011223;28;20631;-92
2021/06/13 08:00:11;;;;;;;4.83;4.37;;;19.20;99.90;;;;;;5026621;28;20700;-93
2021/06/13 08:02:38;;;;;;;7.20;4.67;;;19.30;99.90;;;;;;5027620;28;20658;-93
2021/06/13 08:05:09;;;;;;;9.53;4.80;;;19.20;99.90;;;;;;5027524;28;20634;-93
2021/06/13 08:07:37;;;;;;;10.43;4.50;;;19.30;99.90;;;;;;5027961;28;20635;-92
2021/06/13 08:10:05;;;;;;;5.23;4.13;;;19.60;99.90;;;;;;5032345;28;20619;-93
2021/06/13 08:12:32;;;;;;;4.77;4.00;;;19.70;99.90;;;;;;5032971;28;20954;-94
2021/06/13 08:14:59;;;;;;;5.17;4.67;;;19.80;99.90;;;;;;5032903;28;20632;-94
2021/06/13 08:17:26;;;;;;;8.33;4.90;;;19.60;99.90;;;;;;5035931;28;20621;-94
2021/06/13 08:19:53;;;;;;;7.67;4.77;;;19.70;99.90;;;;;;5035103;28;20625;-94
2021/06/13 08:22:20;;;;;;;5.07;4.63;;;19.80;99.90;;;;;;5033279;28;20650;-92
2021/06/13 08:24:49;;;;;;;5.70;4.30;;;19.70;99.90;;;;;;5037203;28;20666;-92
2021/06/13 08:27:16;;;;;;;5.23;4.33;;;19.80;99.90;;;;;;5042955;28;20622;-92
2021/06/13 08:29:43;;;;;;;4.70;4.03;;;19.60;99.90;;;;;;5045331;28;20894;-93
2021/06/13 08:32:10;;;;;;;6.40;3.93;;;20.00;99.90;;;;;;5047444;28;20678;-93
2021/06/13 08:34:38;;;;;;;4.20;3.77;;;20.00;99.90;;;;;;5048330;28;21178;-93
2021/06/13 08:37:05;;;;;;;4.83;3.80;;;20.00;99.90;;;;;;5045098;28;20615;-93
2021/06/13 08:39:31;;;;;;;5.00;4.20;;;20.10;99.90;;;;;;5043198;28;20658;-93
2021/06/13 08:42:00;;;;;;;4.50;3.73;;;20.20;99.90;;;;;;5045093;28;20655;-93
2021/06/13 08:44:27;;;;;;;6.67;4.20;;;20.10;99.90;;;;;;5045776;28;20642;-92
2021/06/13 08:46:57;;;;;;;6.50;4.10;;;20.20;99.90;;;;;;5047579;28;20706;-92
2021/06/13 08:49:25;;;;;;;7.60;4.50;;;20.10;99.90;;;;;;5044419;28;20655;-91
2021/06/13 08:51:53;;;;;;;6.23;4.33;;;20.20;99.90;;;;;;5040349;28;21122;-91
2021/06/13 08:54:25;;;;;;;5.80;4.20;;;20.20;99.90;;;;;;5038496;28;20659;-92
2021/06/13 08:56:54;;;;;;;6.53;4.40;;;19.90;99.60;;;;;;5037215;28;20632;-93
2021/06/13 08:59:22;;;;;;;7.00;4.90;;;20.10;99.50;;;;;;5035057;28;20626;-93
2021/06/13 09:01:49;;;;;;;5.43;3.73;;;20.10;99.00;;;;;;5040352;28;20686;-93
2021/06/13 09:04:18;;;;;;;7.80;3.87;;;20.40;97.70;;;;;;5039903;28;20651;-94
2021/06/13 09:06:45;;;;;;;7.17;4.63;;;20.40;98.00;;;;;;5042583;28;20610;-94
2021/06/13 09:09:20;;;;;;;4.40;3.60;;;20.50;98.60;;;;;;5043023;28;20628;-93
2021/06/13 09:11:58;;;;;;;4.70;4.17;;;20.90;98.20;;;;;;5043582;28;20609;-93
2021/06/13 09:14:27;;;;;;;7.97;4.70;;;20.70;97.80;;;;;;5045721;28;20635;-93
2021/06/13 09:16:55;;;;;;;6.50;4.27;;;20.60;98.60;;;;;;5042920;28;20623;-92
2021/06/13 09:19:22;;;;;;;4.00;3.60;;;20.50;98.40;;;;;;5031487;28;20619;-93
2021/06/13 09:21:49;;;;;;;4.60;3.93;;;20.70;99.60;;;;;;5033311;28;20662;-94
2021/06/13 09:24:20;;;;;;;5.40;3.70;;;21.20;98.80;;;;;;5044024;28;20738;-93
2021/06/13 09:26:47;;;;;;;10.00;4.20;;;21.40;99.10;;;;;;5037626;28;20637;-93
2021/06/13 09:29:14;;;;;;;3.90;3.50;;;21.40;97.30;;;;;;5028856;28;20685;-92
2021/06/13 09:31:43;;;;;;;5.40;3.93;;;21.50;96.50;;;;;;5016782;28;20665;-92
2021/06/13 09:34:15;;;;;;;4.63;3.20;;;21.30;96.60;;;;;;5023382;28;20660;-92
2021/06/13 09:39:27;;;;;;;5.40;3.90;;;20.90;96.10;;;;;;5028421;28;20659;-93
2021/06/13 09:41:54;;;;;;;5.90;3.50;;;21.40;97.00;;;;;;5028756;28;20651;-94
2021/06/13 09:44:25;;;;;;;5.30;3.70;;;21.90;96.60;;;;;;5031919;28;20673;-92
2021/06/13 09:46:56;;;;;;;6.60;4.20;;;21.80;95.60;;;;;;5032028;28;20612;-93
2021/06/13 09:49:23;;;;;;;4.13;3.47;;;21.90;96.40;;;;;;5011847;28;20631;-94
2021/06/13 09:51:58;;;;;;;7.40;4.47;;;21.60;95.50;;;;;;5031745;28;20631;-93
2021/06/13 09:54:28;;;;;;;5.27;3.50;;;21.50;95.50;;;;;;5025160;28;21302;-94
2021/06/13 09:56:57;;;;;;;3.53;3.23;;;21.60;96.80;;;;;;5026463;28;20655;-93
2021/06/13 09:59:25;;;;;;;4.10;3.00;;;21.60;95.90;;;;;;5027897;28;21002;-93
2021/06/13 10:01:57;;;;;;;5.57;4.00;;;22.10;95.80;;;;;;5011608;28;20713;-94
2021/06/13 10:04:29;;;;;;;4.73;3.67;;;22.30;95.30;;;;;;5024251;28;20663;-94
2021/06/13 10:06:57;;;;;;;5.43;3.60;;;22.10;94.30;;;;;;5024819;28;21173;-94
2021/06/13 10:09:35;;;;;;;5.20;4.00;;;21.60;95.70;;;;;;5024202;28;20631;-94
2021/06/13 10:12:06;;;;;;;3.67;3.37;;;21.60;96.90;;;;;;5027980;28;21043;-94
2021/06/13 10:14:33;;;;;;;6.47;4.23;;;22.00;96.30;;;;;;5008591;28;20663;-94
2021/06/13 10:17:02;;;;;;;5.60;3.90;;;22.20;93.70;;;;;;5024565;28;20614;-93
2021/06/13 10:19:39;;;;;;;7.10;2.80;;;22.20;93.70;;;;;;5024071;28;20629;-93
2021/06/13 10:22:06;;;;;;;4.37;3.97;;;22.40;93.10;;;;;;5027346;28;20658;-92
2021/06/13 10:24:35;;;;;;;6.90;4.07;;;22.30;93.50;;;;;;5024429;28;20647;-94
2021/06/13 10:27:07;;;;;;;4.87;3.60;;;22.30;94.20;;;;;;5022911;28;20634;-93
2021/06/13 10:29:37;;;;;;;4.30;3.80;;;22.60;93.70;;;;;;5025276;28;20738;-94
2021/06/13 10:32:07;;;;;;;4.00;3.10;;;22.60;92.80;;;;;;5025616;28;20687;-94
2021/06/13 10:34:35;;;;;;;4.73;3.50;;;22.60;93.40;;;;;;5024902;28;21336;-94
2021/06/13 10:37:13;;;;;;;2.93;2.70;;;22.80;93.50;;;;;;5028712;28;20647;-94
2021/06/13 10:39:40;;;;;;;3.73;2.83;;;23.30;92.50;;;;;;5028031;28;20719;-94
2021/06/13 10:42:12;;;;;;;3.70;3.00;;;23.10;91.20;;;;;;5011939;28;20682;-93
2021/06/13 10:44:50;;;;;;;3.40;3.10;;;23.10;91.60;;;;;;5030831;28;20913;-94
2021/06/13 10:47:22;;;;;;;3.57;2.53;;;22.90;90.20;;;;;;5030524;28;20642;-93
2021/06/13 10:50:00;;;;;;;4.03;3.10;;;23.70;90.00;;;;;;5029894;28;20684;-93
2021/06/13 10:52:28;;;;;;;5.63;3.70;;;24.10;91.00;;;;;;5017537;28;20638;-92
2021/06/13 10:54:57;;;;;;;6.80;2.97;;;23.50;90.80;;;;;;5012902;28;20634;-94
2021/06/13 10:57:32;;;;;;;7.60;3.30;;;23.50;89.10;;;;;;5031026;28;20633;-94
2021/06/13 11:00:02;;;;;;;4.97;3.17;;;23.10;90.90;;;;;;5026873;28;20636;-95
2021/06/13 11:02:57;;;;;;;4.67;3.03;;;23.50;90.30;;;;;;5030071;28;20650;-95
2021/06/13 11:05:38;;;;;;;4.43;2.60;;;23.70;90.50;;;;;;5035121;28;20622;-94
2021/06/13 11:08:05;;;;;;;2.80;2.50;;;23.30;88.00;;;;;;5038803;28;20708;-93
2021/06/13 11:10:33;;;;;;;4.67;2.57;;;23.20;87.00;;;;;;5015844;28;20632;-95
2021/06/13 11:13:17;;;;;;;3.80;2.90;;;23.40;90.00;;;;;;5025586;28;20641;-94
2021/06/13 11:15:49;;;;;;;4.77;2.73;;;23.50;86.30;;;;;;5025274;28;20644;-94
2021/06/13 11:18:26;;;;;;;4.60;3.47;;;23.70;87.90;;;;;;5029471;28;20626;-95
2021/06/13 11:21:01;;;;;;;3.20;2.90;;;23.90;82.60;;;;;;5030950;28;20670;-96
2021/06/13 11:23:46;;;;;;;4.93;2.70;;;24.10;85.50;;;;;;5026966;28;20678;-94
2021/06/13 11:26:34;;;;;;;3.43;2.93;;;23.60;83.70;;;;;;5022788;28;21017;-94
2021/06/13 11:29:01;;;;;;;4.47;3.07;;;23.60;86.70;;;;;;5025731;28;20632;-94
2021/06/13 11:31:29;;;;;;;3.77;2.60;;;24.00;84.70;;;;;;5013243;28;21469;-91
2021/06/13 11:34:07;;;;;;;4.40;3.03;;;24.30;84.90;;;;;;5030668;28;20661;-94
2021/06/13 11:36:36;;;;;;;2.40;2.20;;;24.50;82.40;;;;;;5037162;28;20627;-95
2021/06/13 11:39:19;;;;;;;5.60;1.93;;;24.10;82.10;;;;;;5040633;28;20661;-96
2021/06/13 11:41:51;;;;;;;5.30;2.67;;;24.30;82.30;;;;;;5037479;28;21006;-95
2021/06/13 11:44:41;;;;;;;4.13;2.50;;;25.10;78.80;;;;;;5034932;28;20674;-96
2021/06/13 11:47:46;;;;;;;2.93;2.33;;;24.80;78.10;;;;;;5037690;28;20618;-95
2021/06/13 11:50:35;;;;;;;2.50;2.30;;;24.80;78.60;;;;;;5030219;28;20623;-94
2021/06/13 11:53:19;;;;;;;3.77;2.70;;;25.60;76.90;;;;;;5057688;23;20659;-94
2021/06/13 11:56:07;;;;;;;2.90;2.70;;;25.70;75.00;;;;;;5096712;28;20689;-96
2021/06/13 11:58:35;;;;;;;4.80;2.57;;;26.40;70.60;;;;;;5098736;28;20735;-94
2021/06/13 12:01:07;;;;;;;3.13;2.53;;;26.30;70.90;;;;;;5145227;22;21102;-94
2021/06/13 12:03:40;;;;;;;2.53;2.23;;;26.70;72.50;;;;;;5067897;28;20664;-94
2021/06/13 12:06:16;;;;;;;2.50;2.30;;;26.70;70.30;;;;;;5047143;28;20653;-92
2021/06/13 12:08:44;;;;;;;3.53;2.30;;;26.90;66.60;;;;;;5063168;28;20620;-93
2021/06/13 12:11:35;;;;;;;6.83;2.83;;;27.20;65.30;;;;;;5067644;28;20651;-92
2021/06/13 12:14:21;;;;;;;4.40;2.77;;;27.30;67.00;;;;;;5064108;28;20727;-92
2021/06/13 12:16:51;;;;;;;2.47;2.27;;;27.80;69.00;;;;;;5065357;28;20708;-93
2021/06/13 12:19:29;;;;;;;2.17;1.97;;;28.20;64.70;;;;;;5065831;28;20724;-95
2021/06/13 12:22:27;;;;;;;6.20;2.50;;;28.90;63.40;;;;;;5067601;28;20638;-94
2021/06/13 12:27:42;;;;;;;2.90;2.50;;;28.30;59.70;;;;;;5063677;28;20575;-93
2021/06/13 12:30:13;;;;;;;2.60;2.10;;;28.50;62.50;;;;;;5064038;28;21023;-95
2021/06/13 12:32:41;;;;;;;2.30;2.10;;;29.10;57.00;;;;;;5067467;28;20616;-94
2021/06/13 12:35:11;;;;;;;3.00;1.80;;;29.30;56.20;;;;;;5050577;28;20628;-95
2021/06/13 12:37:41;;;;;;;2.20;1.70;;;29.40;55.40;;;;;;5048451;28;20653;-96
2021/06/13 12:40:11;;;;;;;3.00;1.70;;;30.40;49.90;;;;;;5063591;28;20675;-94
2021/06/13 12:42:41;;;;;;;2.90;1.80;;;29.10;50.30;;;;;;5065567;28;20702;-94
2021/06/13 12:45:11;;;;;;;2.37;2.17;;;29.30;52.50;;;;;;5062252;28;21206;-95
2021/06/13 12:47:39;;;;;;;4.73;2.37;;;29.50;54.10;;;;;;5061932;28;20617;-95
2021/06/13 12:50:08;;;;;;;2.90;1.80;;;29.40;54.60;;;;;;5060221;28;20657;-93
2021/06/13 12:52:50;;;;;;;3.20;2.20;;;29.60;55.70;;;;;;5063130;28;20999;-95
2021/06/13 12:55:17;;;;;;;2.00;1.80;;;29.40;52.70;;;;;;5061845;28;20616;-94
2021/06/13 12:57:47;;;;;;;3.53;2.40;;;29.70;52.80;;;;;;5061896;28;20645;-94
2021/06/13 13:00:22;;;;;;;2.73;2.20;;;29.70;53.70;;;;;;5068647;28;20652;-96
2021/06/13 13:03:04;;;;;;;2.77;2.10;;;29.70;52.60;;;;;;5044896;28;20679;-95
2021/06/13 13:05:31;;;;;;;2.80;2.20;;;30.60;52.80;;;;;;5063078;28;20998;-96
2021/06/13 13:08:18;;;;;;;5.40;2.20;;;30.70;50.90;;;;;;5045285;28;20665;-95